sensor_id;sensor_type;location;lat;lon;timestamp;pressure;altitude;pressure_sealevel;temperature;humidity
4326;BME280;58429;49.826;10.880;2022-09-03T00:00:31;98506;;;16.77;51.17
4326;BME280;58429;49.826;10.880;2022-09-03T00:01:32;98506;;;16.72;51.35
4326;BME280;58429;49.826;10.880;2022-09-03T00:02:33;98505;;;16.7;51.27
4326;BME280;58429;49.826;10.880;2022-09-03T00:03:32;98505;;;16.68;51.47
4326;BME280;58429;49.826;10.880;2022-09-03T00:04:31;98508;;;16.64;51.48
4326;BME280;58429;49.826;10.880;2022-09-03T00:05:34;98498;;;16.63;51.75
4326;BME280;58429;49.826;10.880;2022-09-03T00:06:32;98492;;;16.61;51.8
4326;BME280;58429;49.826;10.880;2022-09-03T00:07:38;98497;;;16.54;51.7
4326;BME280;58429;49.826;10.880;2022-09-03T00:08:32;98492;;;16.59;51.88
4326;BME280;58429;49.826;10.880;2022-09-03T00:09:32;98493;;;16.53;51.98
4326;BME280;58429;49.826;10.880;2022-09-03T00:10:33;98488;;;16.41;52.08
4326;BME280;58429;49.826;10.880;2022-09-03T00:11:32;98496;;;16.42;52.29
4326;BME280;58429;49.826;10.880;2022-09-03T00:12:32;98488;;;16.35;52.37
4326;BME280;58429;49.826;10.880;2022-09-03T00:13:32;98484;;;16.33;52.43
4326;BME280;58429;49.826;10.880;2022-09-03T00:14:33;98484;;;16.29;52.62
4326;BME280;58429;49.826;10.880;2022-09-03T00:15:31;98486;;;16.29;52.6
4326;BME280;58429;49.826;10.880;2022-09-03T00:16:33;98484;;;16.24;52.89
4326;BME280;58429;49.826;10.880;2022-09-03T00:17:31;98481;;;16.25;52.74
4326;BME280;58429;49.826;10.880;2022-09-03T00:18:31;98485;;;16.21;52.65
4326;BME280;58429;49.826;10.880;2022-09-03T00:19:31;98485;;;16.2;52.76
4326;BME280;58429;49.826;10.880;2022-09-03T00:20:32;98489;;;16.13;52.83
4326;BME280;58429;49.826;10.880;2022-09-03T00:21:34;98487;;;16.14;52.9
4326;BME280;58429;49.826;10.880;2022-09-03T00:22:32;98481;;;16.11;52.72
4326;BME280;58429;49.826;10.880;2022-09-03T00:23:31;98490;;;16.1;52.72
4326;BME280;58429;49.826;10.880;2022-09-03T00:24:33;98486;;;16.12;52.68
4326;BME280;58429;49.826;10.880;2022-09-03T00:25:32;98484;;;16.12;52.72
4326;BME280;58429;49.826;10.880;2022-09-03T00:26:32;98487;;;16.12;52.78
4326;BME280;58429;49.826;10.880;2022-09-03T00:27:31;98480;;;16.08;52.78
4326;BME280;58429;49.826;10.880;2022-09-03T00:28:32;98489;;;16.04;52.96
4326;BME280;58429;49.826;10.880;2022-09-03T00:29:32;98491;;;15.99;52.96
4326;BME280;58429;49.826;10.880;2022-09-03T00:30:31;98489;;;15.94;53.21
4326;BME280;58429;49.826;10.880;2022-09-03T00:31:32;98490;;;15.9;53.11
4326;BME280;58429;49.826;10.880;2022-09-03T00:32:33;98488;;;15.89;53.19
4326;BME280;58429;49.826;10.880;2022-09-03T00:33:31;98491;;;15.83;53.29
4326;BME280;58429;49.826;10.880;2022-09-03T00:34:33;98490;;;15.84;53.54
4326;BME280;58429;49.826;10.880;2022-09-03T00:35:32;98490;;;15.77;53.88
4326;BME280;58429;49.826;10.880;2022-09-03T00:36:33;98494;;;15.69;54.36
4326;BME280;58429;49.826;10.880;2022-09-03T00:37:31;98487;;;15.67;54.31
4326;BME280;58429;49.826;10.880;2022-09-03T00:38:31;98484;;;15.64;54.53
4326;BME280;58429;49.826;10.880;2022-09-03T00:39:31;98481;;;15.61;54.5
4326;BME280;58429;49.826;10.880;2022-09-03T00:40:35;98478;;;15.58;54.5
4326;BME280;58429;49.826;10.880;2022-09-03T00:41:32;98481;;;15.61;54.57
4326;BME280;58429;49.826;10.880;2022-09-03T00:42:34;98484;;;15.63;54.76
4326;BME280;58429;49.826;10.880;2022-09-03T00:43:35;98474;;;15.57;54.63
4326;BME280;58429;49.826;10.880;2022-09-03T00:44:35;98479;;;15.61;54.89
4326;BME280;58429;49.826;10.880;2022-09-03T00:45:32;98475;;;15.6;54.72
4326;BME280;58429;49.826;10.880;2022-09-03T00:46:32;98481;;;15.64;54.15
4326;BME280;58429;49.826;10.880;2022-09-03T00:47:34;98486;;;15.62;54.49
4326;BME280;58429;49.826;10.880;2022-09-03T00:48:32;98487;;;15.62;54.5
4326;BME280;58429;49.826;10.880;2022-09-03T00:49:34;98484;;;15.59;54.94
4326;BME280;58429;49.826;10.880;2022-09-03T00:50:34;98489;;;15.55;54.65
4326;BME280;58429;49.826;10.880;2022-09-03T00:51:32;98486;;;15.48;54.96
4326;BME280;58429;49.826;10.880;2022-09-03T00:52:35;98489;;;15.41;54.98
4326;BME280;58429;49.826;10.880;2022-09-03T00:53:32;98483;;;15.39;55.07
4326;BME280;58429;49.826;10.880;2022-09-03T00:54:32;98485;;;15.37;55.27
4326;BME280;58429;49.826;10.880;2022-09-03T00:55:34;98490;;;15.34;55.71
4326;BME280;58429;49.826;10.880;2022-09-03T00:56:33;98488;;;15.26;56.24
4326;BME280;58429;49.826;10.880;2022-09-03T00:57:34;98494;;;15.13;56.05
4326;BME280;58429;49.826;10.880;2022-09-03T00:58:34;98489;;;15.05;56.36
4326;BME280;58429;49.826;10.880;2022-09-03T00:59:32;98497;;;14.96;56.7
4326;BME280;58429;49.826;10.880;2022-09-03T01:00:31;98499;;;14.89;56.84
4326;BME280;58429;49.826;10.880;2022-09-03T01:01:33;98500;;;14.81;57.59
4326;BME280;58429;49.826;10.880;2022-09-03T01:02:34;98500;;;14.71;57.51
4326;BME280;58429;49.826;10.880;2022-09-03T01:03:33;98499;;;14.64;57.76
4326;BME280;58429;49.826;10.880;2022-09-03T01:04:34;98504;;;14.59;57.98
4326;BME280;58429;49.826;10.880;2022-09-03T01:05:37;98502;;;14.58;57.45
4326;BME280;58429;49.826;10.880;2022-09-03T01:06:32;98500;;;14.59;57.82
4326;BME280;58429;49.826;10.880;2022-09-03T01:07:33;98502;;;14.58;57.51
4326;BME280;58429;49.826;10.880;2022-09-03T01:08:36;98503;;;14.59;58.06
4326;BME280;58429;49.826;10.880;2022-09-03T01:09:34;98501;;;14.58;57.83
4326;BME280;58429;49.826;10.880;2022-09-03T01:10:33;98499;;;14.61;58.03
4326;BME280;58429;49.826;10.880;2022-09-03T01:11:32;98504;;;14.61;58.15
4326;BME280;58429;49.826;10.880;2022-09-03T01:12:33;98503;;;14.59;58.02
4326;BME280;58429;49.826;10.880;2022-09-03T01:13:32;98498;;;14.6;58.1
4326;BME280;58429;49.826;10.880;2022-09-03T01:14:36;98500;;;14.59;58.06
4326;BME280;58429;49.826;10.880;2022-09-03T01:15:34;98495;;;14.56;58.41
4326;BME280;58429;49.826;10.880;2022-09-03T01:16:33;98497;;;14.57;57.91
4326;BME280;58429;49.826;10.880;2022-09-03T01:17:43;98498;;;14.59;58.13
4326;BME280;58429;49.826;10.880;2022-09-03T01:18:33;98496;;;14.51;58.76
4326;BME280;58429;49.826;10.880;2022-09-03T01:19:37;98498;;;14.43;58.39
4326;BME280;58429;49.826;10.880;2022-09-03T01:20:33;98498;;;14.41;58.31
4326;BME280;58429;49.826;10.880;2022-09-03T01:21:38;98495;;;14.34;58.95
4326;BME280;58429;49.826;10.880;2022-09-03T01:22:45;98499;;;14.32;59.06
4326;BME280;58429;49.826;10.880;2022-09-03T01:23:44;98495;;;14.28;59.12
4326;BME280;58429;49.826;10.880;2022-09-03T01:24:39;98496;;;14.23;59
4326;BME280;58429;49.826;10.880;2022-09-03T01:25:36;98498;;;14.17;58.83
4326;BME280;58429;49.826;10.880;2022-09-03T01:26:35;98500;;;14.23;58.86
4326;BME280;58429;49.826;10.880;2022-09-03T01:27:34;98502;;;14.1;59.37
4326;BME280;58429;49.826;10.880;2022-09-03T01:28:37;98501;;;14.11;59.41
4326;BME280;58429;49.826;10.880;2022-09-03T01:29:31;98500;;;14.11;59.48
4326;BME280;58429;49.826;10.880;2022-09-03T01:30:32;98505;;;14.1;59.4
4326;BME280;58429;49.826;10.880;2022-09-03T01:31:32;98508;;;14.01;60.15
4326;BME280;58429;49.826;10.880;2022-09-03T01:32:33;98508;;;13.99;59.89
4326;BME280;58429;49.826;10.880;2022-09-03T01:33:32;98511;;;13.91;59.9
4326;BME280;58429;49.826;10.880;2022-09-03T01:34:36;98508;;;13.9;60.56
4326;BME280;58429;49.826;10.880;2022-09-03T01:35:32;98509;;;13.83;61.05
4326;BME280;58429;49.826;10.880;2022-09-03T01:36:33;98508;;;13.65;61.66
4326;BME280;58429;49.826;10.880;2022-09-03T01:37:34;98512;;;13.58;61.64
4326;BME280;58429;49.826;10.880;2022-09-03T01:38:31;98511;;;13.46;61.58
4326;BME280;58429;49.826;10.880;2022-09-03T01:39:33;98516;;;13.43;61.92
4326;BME280;58429;49.826;10.880;2022-09-03T01:40:32;98509;;;13.37;61.7
4326;BME280;58429;49.826;10.880;2022-09-03T01:41:35;98507;;;13.39;61.35
4326;BME280;58429;49.826;10.880;2022-09-03T01:42:32;98506;;;13.38;61.78
4326;BME280;58429;49.826;10.880;2022-09-03T01:43:34;98505;;;13.33;62.14
4326;BME280;58429;49.826;10.880;2022-09-03T01:44:34;98507;;;13.25;62.73
4326;BME280;58429;49.826;10.880;2022-09-03T01:45:34;98507;;;13.18;63.12
4326;BME280;58429;49.826;10.880;2022-09-03T01:46:32;98510;;;13.19;62.25
4326;BME280;58429;49.826;10.880;2022-09-03T01:47:45;98514;;;13.12;62.83
4326;BME280;58429;49.826;10.880;2022-09-03T01:48:32;98509;;;13.14;62.17
4326;BME280;58429;49.826;10.880;2022-09-03T01:49:33;98504;;;13.11;62.66
4326;BME280;58429;49.826;10.880;2022-09-03T01:50:34;98506;;;13.1;62.69
4326;BME280;58429;49.826;10.880;2022-09-03T01:51:31;98511;;;13.09;62.66
4326;BME280;58429;49.826;10.880;2022-09-03T01:52:34;98510;;;13.1;62.5
4326;BME280;58429;49.826;10.880;2022-09-03T01:53:35;98513;;;13.06;62.91
4326;BME280;58429;49.826;10.880;2022-09-03T01:54:37;98510;;;13.09;63.22
4326;BME280;58429;49.826;10.880;2022-09-03T01:55:31;98512;;;13.07;62.9
4326;BME280;58429;49.826;10.880;2022-09-03T01:56:34;98509;;;13.11;62.86
4326;BME280;58429;49.826;10.880;2022-09-03T01:57:36;98510;;;13.1;62.92
4326;BME280;58429;49.826;10.880;2022-09-03T01:58:32;98505;;;13.11;62.99
4326;BME280;58429;49.826;10.880;2022-09-03T01:59:31;98502;;;13.1;63.41
4326;BME280;58429;49.826;10.880;2022-09-03T02:00:31;98503;;;13.03;62.93
4326;BME280;58429;49.826;10.880;2022-09-03T02:01:31;98506;;;13.03;63.25
4326;BME280;58429;49.826;10.880;2022-09-03T02:02:31;98499;;;12.99;63.45
4326;BME280;58429;49.826;10.880;2022-09-03T02:03:32;98508;;;13.02;63.48
4326;BME280;58429;49.826;10.880;2022-09-03T02:04:31;98513;;;12.93;63.56
4326;BME280;58429;49.826;10.880;2022-09-03T02:05:31;98514;;;12.96;63.36
4326;BME280;58429;49.826;10.880;2022-09-03T02:06:31;98509;;;12.95;63.53
4326;BME280;58429;49.826;10.880;2022-09-03T02:07:32;98503;;;12.91;63.85
4326;BME280;58429;49.826;10.880;2022-09-03T02:08:31;98505;;;12.87;64.25
4326;BME280;58429;49.826;10.880;2022-09-03T02:09:31;98510;;;12.83;64.32
4326;BME280;58429;49.826;10.880;2022-09-03T02:10:31;98510;;;12.82;64.91
4326;BME280;58429;49.826;10.880;2022-09-03T02:11:31;98503;;;12.79;64.36
4326;BME280;58429;49.826;10.880;2022-09-03T02:12:31;98508;;;12.81;64.08
4326;BME280;58429;49.826;10.880;2022-09-03T02:13:33;98504;;;12.75;64.07
4326;BME280;58429;49.826;10.880;2022-09-03T02:14:31;98500;;;12.75;63.77
4326;BME280;58429;49.826;10.880;2022-09-03T02:15:31;98502;;;12.79;63.79
4326;BME280;58429;49.826;10.880;2022-09-03T02:16:32;98508;;;12.79;63.55
4326;BME280;58429;49.826;10.880;2022-09-03T02:17:31;98500;;;12.81;63.98
4326;BME280;58429;49.826;10.880;2022-09-03T02:18:32;98504;;;12.76;64.41
4326;BME280;58429;49.826;10.880;2022-09-03T02:19:31;98508;;;12.64;63.91
4326;BME280;58429;49.826;10.880;2022-09-03T02:20:31;98510;;;12.7;64.11
4326;BME280;58429;49.826;10.880;2022-09-03T02:21:32;98504;;;12.73;64.09
4326;BME280;58429;49.826;10.880;2022-09-03T02:22:31;98509;;;12.79;64.02
4326;BME280;58429;49.826;10.880;2022-09-03T02:23:31;98503;;;12.73;64.35
4326;BME280;58429;49.826;10.880;2022-09-03T02:24:31;98508;;;12.75;64.14
4326;BME280;58429;49.826;10.880;2022-09-03T02:25:32;98505;;;12.7;64.03
4326;BME280;58429;49.826;10.880;2022-09-03T02:26:31;98507;;;12.75;64.01
4326;BME280;58429;49.826;10.880;2022-09-03T02:27:31;98498;;;12.78;64.07
4326;BME280;58429;49.826;10.880;2022-09-03T02:28:31;98503;;;12.76;64.23
4326;BME280;58429;49.826;10.880;2022-09-03T02:29:31;98503;;;12.77;64.28
4326;BME280;58429;49.826;10.880;2022-09-03T02:30:31;98504;;;12.73;64.26
4326;BME280;58429;49.826;10.880;2022-09-03T02:31:31;98494;;;12.7;64.36
4326;BME280;58429;49.826;10.880;2022-09-03T02:32:31;98499;;;12.74;64.33
4326;BME280;58429;49.826;10.880;2022-09-03T02:33:31;98502;;;12.67;65.22
4326;BME280;58429;49.826;10.880;2022-09-03T02:34:31;98503;;;12.62;64.55
4326;BME280;58429;49.826;10.880;2022-09-03T02:35:31;98500;;;12.62;64.7
4326;BME280;58429;49.826;10.880;2022-09-03T02:36:31;98504;;;12.57;64.85
4326;BME280;58429;49.826;10.880;2022-09-03T02:37:31;98500;;;12.49;64.53
4326;BME280;58429;49.826;10.880;2022-09-03T02:38:31;98502;;;12.45;64.94
4326;BME280;58429;49.826;10.880;2022-09-03T02:39:31;98505;;;12.49;65.06
4326;BME280;58429;49.826;10.880;2022-09-03T02:40:31;98497;;;12.49;64.98
4326;BME280;58429;49.826;10.880;2022-09-03T02:41:31;98504;;;12.45;64.9
4326;BME280;58429;49.826;10.880;2022-09-03T02:42:31;98502;;;12.49;64.61
4326;BME280;58429;49.826;10.880;2022-09-03T02:43:33;98504;;;12.55;64.76
4326;BME280;58429;49.826;10.880;2022-09-03T02:44:31;98503;;;12.56;64.87
4326;BME280;58429;49.826;10.880;2022-09-03T02:45:31;98501;;;12.63;64.8
4326;BME280;58429;49.826;10.880;2022-09-03T02:46:31;98499;;;12.64;64.87
4326;BME280;58429;49.826;10.880;2022-09-03T02:47:31;98502;;;12.64;64.55
4326;BME280;58429;49.826;10.880;2022-09-03T02:48:31;98500;;;12.66;64.79
4326;BME280;58429;49.826;10.880;2022-09-03T02:49:31;98503;;;12.71;64.62
4326;BME280;58429;49.826;10.880;2022-09-03T02:50:31;98500;;;12.76;64.3
4326;BME280;58429;49.826;10.880;2022-09-03T02:51:32;98498;;;12.79;64.23
4326;BME280;58429;49.826;10.880;2022-09-03T02:52:31;98493;;;12.82;64.08
4326;BME280;58429;49.826;10.880;2022-09-03T02:53:31;98497;;;12.84;64.3
4326;BME280;58429;49.826;10.880;2022-09-03T02:54:31;98495;;;12.82;64.48
4326;BME280;58429;49.826;10.880;2022-09-03T02:55:31;98492;;;12.83;64.34
4326;BME280;58429;49.826;10.880;2022-09-03T02:56:31;98492;;;12.82;64.23
4326;BME280;58429;49.826;10.880;2022-09-03T02:57:31;98491;;;12.81;64.25
4326;BME280;58429;49.826;10.880;2022-09-03T02:58:31;98489;;;12.78;64.73
4326;BME280;58429;49.826;10.880;2022-09-03T02:59:31;98485;;;12.74;64.83
4326;BME280;58429;49.826;10.880;2022-09-03T03:00:31;98483;;;12.69;65.25
4326;BME280;58429;49.826;10.880;2022-09-03T03:01:31;98479;;;12.59;65.12
4326;BME280;58429;49.826;10.880;2022-09-03T03:02:31;98488;;;12.55;65.52
4326;BME280;58429;49.826;10.880;2022-09-03T03:03:31;98485;;;12.47;65.67
4326;BME280;58429;49.826;10.880;2022-09-03T03:04:31;98484;;;12.38;65.76
4326;BME280;58429;49.826;10.880;2022-09-03T03:05:34;98483;;;12.37;66.09
4326;BME280;58429;49.826;10.880;2022-09-03T03:06:31;98482;;;12.31;66.71
4326;BME280;58429;49.826;10.880;2022-09-03T03:07:31;98485;;;12.26;66.15
4326;BME280;58429;49.826;10.880;2022-09-03T03:08:31;98480;;;12.27;66
4326;BME280;58429;49.826;10.880;2022-09-03T03:09:31;98484;;;12.27;65.77
4326;BME280;58429;49.826;10.880;2022-09-03T03:10:31;98488;;;12.31;65.78
4326;BME280;58429;49.826;10.880;2022-09-03T03:11:31;98480;;;12.33;65.43
4326;BME280;58429;49.826;10.880;2022-09-03T03:12:31;98477;;;12.33;65.71
4326;BME280;58429;49.826;10.880;2022-09-03T03:13:31;98480;;;12.33;65.61
4326;BME280;58429;49.826;10.880;2022-09-03T03:14:31;98481;;;12.34;65.65
4326;BME280;58429;49.826;10.880;2022-09-03T03:15:31;98481;;;12.35;65.64
4326;BME280;58429;49.826;10.880;2022-09-03T03:16:31;98479;;;12.35;65.43
4326;BME280;58429;49.826;10.880;2022-09-03T03:17:31;98485;;;12.35;65.84
4326;BME280;58429;49.826;10.880;2022-09-03T03:18:31;98484;;;12.3;66.87
4326;BME280;58429;49.826;10.880;2022-09-03T03:19:31;98486;;;12.27;66.26
4326;BME280;58429;49.826;10.880;2022-09-03T03:20:31;98486;;;12.29;66.2
4326;BME280;58429;49.826;10.880;2022-09-03T03:21:31;98483;;;12.22;66.64
4326;BME280;58429;49.826;10.880;2022-09-03T03:22:31;98478;;;12.2;66.59
4326;BME280;58429;49.826;10.880;2022-09-03T03:23:31;98482;;;12.12;66.85
4326;BME280;58429;49.826;10.880;2022-09-03T03:24:31;98490;;;12.12;66.72
4326;BME280;58429;49.826;10.880;2022-09-03T03:25:31;98488;;;12.09;67.05
4326;BME280;58429;49.826;10.880;2022-09-03T03:26:31;98488;;;12.04;66.99
4326;BME280;58429;49.826;10.880;2022-09-03T03:27:31;98488;;;11.94;67.65
4326;BME280;58429;49.826;10.880;2022-09-03T03:28:31;98493;;;11.91;67.9
4326;BME280;58429;49.826;10.880;2022-09-03T03:29:31;98491;;;11.86;67.55
4326;BME280;58429;49.826;10.880;2022-09-03T03:30:31;98489;;;11.86;67.39
4326;BME280;58429;49.826;10.880;2022-09-03T03:31:31;98484;;;11.85;67.55
4326;BME280;58429;49.826;10.880;2022-09-03T03:32:31;98490;;;11.83;67.86
4326;BME280;58429;49.826;10.880;2022-09-03T03:33:31;98488;;;11.81;67.3
4326;BME280;58429;49.826;10.880;2022-09-03T03:34:31;98484;;;11.79;67.66
4326;BME280;58429;49.826;10.880;2022-09-03T03:35:31;98488;;;11.78;67.41
4326;BME280;58429;49.826;10.880;2022-09-03T03:36:31;98486;;;11.73;68.09
4326;BME280;58429;49.826;10.880;2022-09-03T03:37:31;98486;;;11.66;68.19
4326;BME280;58429;49.826;10.880;2022-09-03T03:38:31;98490;;;11.62;68.16
4326;BME280;58429;49.826;10.880;2022-09-03T03:39:31;98492;;;11.62;67.86
4326;BME280;58429;49.826;10.880;2022-09-03T03:40:31;98494;;;11.62;67.73
4326;BME280;58429;49.826;10.880;2022-09-03T03:41:31;98497;;;11.59;68.15
4326;BME280;58429;49.826;10.880;2022-09-03T03:42:31;98501;;;11.59;68.11
4326;BME280;58429;49.826;10.880;2022-09-03T03:43:31;98498;;;11.6;68
4326;BME280;58429;49.826;10.880;2022-09-03T03:44:31;98501;;;11.48;68.32
4326;BME280;58429;49.826;10.880;2022-09-03T03:45:31;98494;;;11.45;68.64
4326;BME280;58429;49.826;10.880;2022-09-03T03:46:32;98499;;;11.36;68.58
4326;BME280;58429;49.826;10.880;2022-09-03T03:47:32;98498;;;11.36;68.83
4326;BME280;58429;49.826;10.880;2022-09-03T03:48:31;98499;;;11.34;69.12
4326;BME280;58429;49.826;10.880;2022-09-03T03:49:31;98498;;;11.34;69.58
4326;BME280;58429;49.826;10.880;2022-09-03T03:50:31;98503;;;11.32;69.7
4326;BME280;58429;49.826;10.880;2022-09-03T03:51:31;98497;;;11.29;69.41
4326;BME280;58429;49.826;10.880;2022-09-03T03:52:31;98498;;;11.25;69.57
4326;BME280;58429;49.826;10.880;2022-09-03T03:53:31;98491;;;11.2;70.16
4326;BME280;58429;49.826;10.880;2022-09-03T03:54:31;98494;;;11.1;70.39
4326;BME280;58429;49.826;10.880;2022-09-03T03:55:31;98493;;;11.12;69.84
4326;BME280;58429;49.826;10.880;2022-09-03T03:56:31;98492;;;11.1;69.98
4326;BME280;58429;49.826;10.880;2022-09-03T03:57:31;98492;;;11.09;69.85
4326;BME280;58429;49.826;10.880;2022-09-03T03:58:31;98492;;;11.11;69.74
4326;BME280;58429;49.826;10.880;2022-09-03T03:59:31;98491;;;11.08;70.13
4326;BME280;58429;49.826;10.880;2022-09-03T04:00:31;98489;;;11.07;69.7
4326;BME280;58429;49.826;10.880;2022-09-03T04:01:31;98496;;;11.07;70.06
4326;BME280;58429;49.826;10.880;2022-09-03T04:02:32;98491;;;11.09;69.37
4326;BME280;58429;49.826;10.880;2022-09-03T04:03:31;98495;;;11.1;69.52
4326;BME280;58429;49.826;10.880;2022-09-03T04:04:31;98491;;;11.09;69.43
4326;BME280;58429;49.826;10.880;2022-09-03T04:05:31;98490;;;11.1;69.58
4326;BME280;58429;49.826;10.880;2022-09-03T04:06:31;98495;;;11.07;69.76
4326;BME280;58429;49.826;10.880;2022-09-03T04:07:31;98486;;;11.06;70.35
4326;BME280;58429;49.826;10.880;2022-09-03T04:08:33;98488;;;11.08;70.01
4326;BME280;58429;49.826;10.880;2022-09-03T04:09:31;98490;;;11.07;69.57
4326;BME280;58429;49.826;10.880;2022-09-03T04:10:31;98489;;;11.08;69.6
4326;BME280;58429;49.826;10.880;2022-09-03T04:11:31;98488;;;11.11;69.89
4326;BME280;58429;49.826;10.880;2022-09-03T04:12:31;98493;;;11.09;69.7
4326;BME280;58429;49.826;10.880;2022-09-03T04:13:32;98492;;;11.08;69.79
4326;BME280;58429;49.826;10.880;2022-09-03T04:14:31;98494;;;11.04;69.97
4326;BME280;58429;49.826;10.880;2022-09-03T04:15:31;98496;;;11.08;70.14
4326;BME280;58429;49.826;10.880;2022-09-03T04:16:31;98498;;;11.05;69.91
4326;BME280;58429;49.826;10.880;2022-09-03T04:17:31;98497;;;11.06;69.9
4326;BME280;58429;49.826;10.880;2022-09-03T04:18:31;98485;;;11.08;69.68
4326;BME280;58429;49.826;10.880;2022-09-03T04:19:31;98488;;;11.08;69.84
4326;BME280;58429;49.826;10.880;2022-09-03T04:20:31;98488;;;11.1;69.79
4326;BME280;58429;49.826;10.880;2022-09-03T04:21:31;98485;;;11.08;69.83
4326;BME280;58429;49.826;10.880;2022-09-03T04:22:31;98490;;;11.14;69.48
4326;BME280;58429;49.826;10.880;2022-09-03T04:23:31;98486;;;11.12;69.6
4326;BME280;58429;49.826;10.880;2022-09-03T04:24:31;98487;;;11.13;69.63
4326;BME280;58429;49.826;10.880;2022-09-03T04:25:31;98489;;;11.13;69.42
4326;BME280;58429;49.826;10.880;2022-09-03T04:26:32;98487;;;11.14;69.78
4326;BME280;58429;49.826;10.880;2022-09-03T04:27:31;98483;;;11.12;69.75
4326;BME280;58429;49.826;10.880;2022-09-03T04:28:31;98491;;;11.14;70
4326;BME280;58429;49.826;10.880;2022-09-03T04:29:31;98485;;;11.14;69.83
4326;BME280;58429;49.826;10.880;2022-09-03T04:30:31;98494;;;11.11;69.77
4326;BME280;58429;49.826;10.880;2022-09-03T04:31:31;98492;;;11.11;69.81
4326;BME280;58429;49.826;10.880;2022-09-03T04:32:31;98493;;;11.14;69.95
4326;BME280;58429;49.826;10.880;2022-09-03T04:33:31;98496;;;11.14;70.3
4326;BME280;58429;49.826;10.880;2022-09-03T04:34:31;98485;;;11.13;70.29
4326;BME280;58429;49.826;10.880;2022-09-03T04:35:31;98493;;;11.14;69.97
4326;BME280;58429;49.826;10.880;2022-09-03T04:36:31;98501;;;11.17;70.24
4326;BME280;58429;49.826;10.880;2022-09-03T04:37:31;98498;;;11.14;70.14
4326;BME280;58429;49.826;10.880;2022-09-03T04:38:31;98491;;;11.15;70.29
4326;BME280;58429;49.826;10.880;2022-09-03T04:39:31;98495;;;11.16;70.66
4326;BME280;58429;49.826;10.880;2022-09-03T04:40:31;98500;;;11.17;70.19
4326;BME280;58429;49.826;10.880;2022-09-03T04:41:31;98496;;;11.16;70.47
4326;BME280;58429;49.826;10.880;2022-09-03T04:42:31;98500;;;11.13;70.92
4326;BME280;58429;49.826;10.880;2022-09-03T04:43:31;98501;;;11.14;70.64
4326;BME280;58429;49.826;10.880;2022-09-03T04:44:31;98495;;;11.16;70.6
4326;BME280;58429;49.826;10.880;2022-09-03T04:45:31;98501;;;11.15;70.32
4326;BME280;58429;49.826;10.880;2022-09-03T04:46:31;98495;;;11.18;70.85
4326;BME280;58429;49.826;10.880;2022-09-03T04:47:31;98495;;;11.15;70.9
4326;BME280;58429;49.826;10.880;2022-09-03T04:48:31;98502;;;11.09;71.39
4326;BME280;58429;49.826;10.880;2022-09-03T04:49:31;98498;;;11.03;71.53
4326;BME280;58429;49.826;10.880;2022-09-03T04:50:31;98495;;;11.04;71.01
4326;BME280;58429;49.826;10.880;2022-09-03T04:51:31;98504;;;11.05;71.25
4326;BME280;58429;49.826;10.880;2022-09-03T04:52:31;98501;;;11.02;71.67
4326;BME280;58429;49.826;10.880;2022-09-03T04:53:32;98499;;;11.06;71.13
4326;BME280;58429;49.826;10.880;2022-09-03T04:54:31;98500;;;10.97;70.87
4326;BME280;58429;49.826;10.880;2022-09-03T04:55:32;98495;;;10.97;70.75
4326;BME280;58429;49.826;10.880;2022-09-03T04:56:32;98499;;;10.97;70.9
4326;BME280;58429;49.826;10.880;2022-09-03T04:57:32;98502;;;10.89;71.16
4326;BME280;58429;49.826;10.880;2022-09-03T04:58:31;98504;;;10.89;71.56
4326;BME280;58429;49.826;10.880;2022-09-03T04:59:31;98501;;;10.86;71.25
4326;BME280;58429;49.826;10.880;2022-09-03T05:00:31;98501;;;10.85;71.34
4326;BME280;58429;49.826;10.880;2022-09-03T05:01:32;98505;;;10.81;72.19
4326;BME280;58429;49.826;10.880;2022-09-03T05:02:31;98507;;;10.8;71.74
4326;BME280;58429;49.826;10.880;2022-09-03T05:03:31;98501;;;10.77;72.67
4326;BME280;58429;49.826;10.880;2022-09-03T05:04:31;98503;;;10.77;71.45
4326;BME280;58429;49.826;10.880;2022-09-03T05:05:31;98501;;;10.8;71.31
4326;BME280;58429;49.826;10.880;2022-09-03T05:06:31;98511;;;10.79;71.18
4326;BME280;58429;49.826;10.880;2022-09-03T05:07:31;98505;;;10.83;71.22
4326;BME280;58429;49.826;10.880;2022-09-03T05:08:31;98507;;;10.84;71.17
4326;BME280;58429;49.826;10.880;2022-09-03T05:09:31;98513;;;10.84;71.2
4326;BME280;58429;49.826;10.880;2022-09-03T05:10:31;98510;;;10.85;70.95
4326;BME280;58429;49.826;10.880;2022-09-03T05:11:31;98509;;;10.87;71.21
4326;BME280;58429;49.826;10.880;2022-09-03T05:12:31;98515;;;10.91;71.17
4326;BME280;58429;49.826;10.880;2022-09-03T05:13:31;98511;;;10.9;71.38
4326;BME280;58429;49.826;10.880;2022-09-03T05:14:31;98517;;;10.91;71.29
4326;BME280;58429;49.826;10.880;2022-09-03T05:15:31;98512;;;10.92;71.5
4326;BME280;58429;49.826;10.880;2022-09-03T05:16:31;98513;;;10.96;71.35
4326;BME280;58429;49.826;10.880;2022-09-03T05:17:31;98510;;;10.94;71.45
4326;BME280;58429;49.826;10.880;2022-09-03T05:18:31;98515;;;10.96;71.37
4326;BME280;58429;49.826;10.880;2022-09-03T05:19:31;98519;;;10.97;71.6
4326;BME280;58429;49.826;10.880;2022-09-03T05:20:31;98516;;;10.98;71.83
4326;BME280;58429;49.826;10.880;2022-09-03T05:21:31;98518;;;10.93;72.75
4326;BME280;58429;49.826;10.880;2022-09-03T05:22:31;98510;;;10.93;71.82
4326;BME280;58429;49.826;10.880;2022-09-03T05:23:34;98514;;;10.95;71.73
4326;BME280;58429;49.826;10.880;2022-09-03T05:24:31;98517;;;10.93;72.19
4326;BME280;58429;49.826;10.880;2022-09-03T05:25:31;98510;;;10.94;71.89
4326;BME280;58429;49.826;10.880;2022-09-03T05:26:32;98510;;;10.92;71.77
4326;BME280;58429;49.826;10.880;2022-09-03T05:27:31;98511;;;10.96;71.86
4326;BME280;58429;49.826;10.880;2022-09-03T05:28:31;98508;;;10.98;71.95
4326;BME280;58429;49.826;10.880;2022-09-03T05:29:31;98503;;;11.01;71.7
4326;BME280;58429;49.826;10.880;2022-09-03T05:30:31;98514;;;11.06;71.87
4326;BME280;58429;49.826;10.880;2022-09-03T05:31:31;98509;;;11.08;71.69